Hiyodori — JD2366 — position and weather

sailwx.info

Track history (hours):
 
Tides and Currents Weather Stations Pressure Air Temp Water Temp Dewpoint Dewpoint Depression Visibility Wind Speed Wind Dir Waves Ship Positions

Hiyodori

Last reported at 2015-Mar-05 09:32 UTC. Time now 2015-Mar-05 10:29 UTC.
Position N 35°23' E 139°43'.

Length 88 m; draft 3.6 m.

Type: Cargo ship. MMSI: 431000132.

Date/timePositionNaut miles runAvg speedWind from/ knotsBaromVisibWave heightAir tempDewpointWater temp
2015-Mar-05 09:32N 35°23' E 139°43'0 0.0
2015-Mar-05 08:29N 35°23' E 139°43'0 0.0
2015-Mar-05 07:32N 35°23' E 139°43'0 0.0
2015-Mar-05 06:32N 35°23' E 139°43'0 0.0
2015-Mar-05 05:32N 35°23' E 139°43'0 0.0
2015-Mar-05 04:32N 35°23' E 139°43'0 0.0
2015-Mar-05 03:32N 35°23' E 139°43'0 0.0
2015-Mar-05 02:29N 35°23' E 139°43'0 0.0
2015-Mar-05 01:32N 35°23' E 139°43'0 0.0
2015-Mar-05 00:32N 35°23' E 139°43'0 0.0
2015-Mar-04 23:32N 35°23' E 139°43'0 0.0
2015-Mar-04 18:14N 35°23' E 139°43'0 0.0
2015-Mar-04 17:32N 35°23' E 139°43'0 0.1
2015-Mar-04 16:32N 35°23' E 139°44'0 0.0
2015-Mar-04 15:32N 35°23' E 139°44'0 0.1
2015-Mar-04 14:32N 35°23' E 139°44'0 0.0
2015-Mar-04 13:32N 35°23' E 139°44'0 0.1
2015-Mar-04 12:29N 35°23' E 139°44'0 0.0
2015-Mar-04 11:32N 35°23' E 139°44'0 0.1
2015-Mar-04 10:32N 35°23' E 139°43'0 0.1
2015-Mar-04 09:32N 35°23' E 139°44'0 0.0
2015-Mar-04 08:34N 35°23' E 139°44'0 0.0
2015-Mar-04 07:34N 35°23' E 139°44'0 0.0
2015-Mar-04 06:31N 35°23' E 139°44'0 0.1
2015-Mar-04 05:33N 35°23' E 139°43'0 0.0
2015-Mar-04 04:33N 35°23' E 139°43'0 0.0
2015-Mar-04 03:33N 35°23' E 139°43'0 0.0
2015-Mar-04 02:34N 35°23' E 139°43'0 0.0
2015-Mar-04 01:33N 35°23' E 139°43'0 0.0
2015-Mar-04 00:34N 35°23' E 139°43'2 1.9
2015-Mar-03 23:34N 35°25' E 139°44'6 5.6
2015-Mar-03 22:33N 35°29' E 139°39'0 0.0
2015-Mar-03 21:33N 35°29' E 139°39'0 0.0
2015-Mar-03 20:34N 35°29' E 139°39'0 0.0
2015-Mar-03 19:33N 35°29' E 139°39'0 0.0
2015-Mar-03 18:34N 35°29' E 139°39'0 0.0
2015-Mar-03 17:33N 35°29' E 139°39'0 0.0
2015-Mar-03 16:34N 35°29' E 139°39'0 0.0
2015-Mar-03 15:34N 35°29' E 139°39'0 0.0
2015-Mar-03 14:34N 35°29' E 139°39'0 0.0
2015-Mar-03 13:34N 35°29' E 139°39'0 0.0
2015-Mar-03 12:34N 35°29' E 139°39'0 0.0
2015-Mar-03 11:34N 35°29' E 139°39'0 0.0
2015-Mar-03 10:33N 35°29' E 139°39'0 0.0
2015-Mar-03 09:33N 35°29' E 139°39'0 0.0
2015-Mar-03 08:34N 35°29' E 139°39'0 0.0
2015-Mar-03 07:33N 35°29' E 139°39'0 0.0
2015-Mar-03 06:34N 35°29' E 139°39'0 0.0
2015-Mar-03 05:33N 35°29' E 139°39'0 0.0
2015-Mar-03 04:33N 35°29' E 139°39'0 0.0
2015-Mar-03 03:34N 35°29' E 139°39'0 0.0
2015-Mar-03 02:33N 35°29' E 139°39'0 0.0
2015-Mar-03 01:33N 35°29' E 139°39'0 0.0
2015-Mar-03 00:34N 35°29' E 139°39'0 0.0
2015-Mar-02 23:33N 35°29' E 139°39'1 1.0
2015-Mar-02 22:33N 35°28' E 139°40'6 6.3
2015-Mar-02 21:33N 35°23' E 139°44'0 0.0
2015-Mar-02 20:34N 35°23' E 139°44'0 0.0
2015-Mar-02 19:34N 35°23' E 139°44'0 0.0
2015-Mar-02 18:33N 35°23' E 139°44'3 2.9
2015-Mar-02 17:34N 35°24' E 139°41'0 0.0
2015-Mar-02 16:33N 35°24' E 139°41'0 0.5
2015-Mar-02 15:33N 35°24' E 139°41'1410.6
2015-Mar-02 14:16N 35°11' E 139°46'  
2015-Feb-28 06:34N 34°03' E 135°00'1312.6
2015-Feb-28 05:33N 34°15' E 134°59'1211.8
2015-Feb-28 04:33N 34°26' E 135°05'1212.0
2015-Feb-28 03:33N 34°35' E 135°15'4 4.3
2015-Feb-28 02:33N 34°39' E 135°15'0 0.1
2015-Feb-28 01:33N 34°39' E 135°15'3 2.9
2015-Feb-28 00:33N 34°41' E 135°17'0 0.0
2015-Feb-27 23:32N 34°41' E 135°17'3 3.2
2015-Feb-27 22:33N 34°39' E 135°20'1 0.8
2015-Feb-27 21:33N 34°38' E 135°20'0 0.1
2015-Feb-27 20:33N 34°38' E 135°20'0 0.0
2015-Feb-27 19:33N 34°38' E 135°20'0 0.0
2015-Feb-27 18:33N 34°38' E 135°20'0 0.0
2015-Feb-27 17:33N 34°38' E 135°20'0 0.0
2015-Feb-27 16:33N 34°38' E 135°20'5 5.0
2015-Feb-27 15:33N 34°34' E 135°17'1312.8
2015-Feb-27 14:33N 34°24' E 135°06'1111.4
2015-Feb-27 13:33N 34°14' E 134°60'1110.8
2015-Feb-27 12:33N 34°04' E 135°01'9 8.7
2015-Feb-27 11:32N 33°55' E 135°02'225 8.9
2015-Feb-26 10:04N 34°59' E 139°24'810.9
2015-Feb-26 09:21N 35°03' E 139°33'1012.1
2015-Feb-26 08:33N 35°08' E 139°42'1110.9
2015-Feb-26 07:33N 35°19' E 139°43'6 5.5
2015-Feb-26 06:33N 35°24' E 139°41'0 0.0
2015-Feb-26 05:33N 35°24' E 139°41'1 1.0
2015-Feb-26 04:33N 35°24' E 139°40'0 0.2
2015-Feb-26 03:30N 35°23' E 139°40'0 0.1
2015-Feb-26 02:33N 35°23' E 139°40'0 0.0
2015-Feb-26 01:33N 35°23' E 139°40'0 0.0
2015-Feb-26 00:33N 35°23' E 139°40'2 1.8
2015-Feb-25 23:32N 35°24' E 139°42'5 1.0
2015-Feb-25 18:16N 35°29' E 139°39'0 0.0
2015-Feb-25 17:33N 35°29' E 139°39'0 0.0
2015-Feb-25 16:33N 35°29' E 139°39'0 0.0
2015-Feb-25 15:33N 35°29' E 139°39'0 0.0
2015-Feb-25 14:33N 35°29' E 139°39'0 0.0
2015-Feb-25 13:33N 35°29' E 139°39'0 0.0
2015-Feb-25 12:33N 35°29' E 139°39'0 0.0
2015-Feb-25 11:33N 35°29' E 139°39'0 0.0
2015-Feb-25 10:33N 35°29' E 139°39'0 0.0
2015-Feb-25 09:33N 35°29' E 139°39'0 0.0
2015-Feb-25 08:33N 35°29' E 139°39'0 0.0
2015-Feb-25 07:33N 35°29' E 139°39'0 0.0
2015-Feb-25 06:33N 35°29' E 139°39'0 0.0
2015-Feb-25 05:33N 35°29' E 139°39'0 0.0
2015-Feb-25 04:33N 35°29' E 139°39'0 0.0
2015-Feb-25 03:33N 35°29' E 139°39'0 0.0
2015-Feb-25 02:33N 35°29' E 139°39'0 0.0
2015-Feb-25 01:33N 35°29' E 139°39'0 0.0
2015-Feb-25 00:33N 35°29' E 139°39'0 0.0
2015-Feb-24 23:33N 35°29' E 139°39'2 2.2
2015-Feb-24 22:33N 35°27' E 139°41'5 4.6
2015-Feb-24 21:32N 35°23' E 139°44'0 0.0
2015-Feb-24 20:32N 35°23' E 139°44'0 0.0
2015-Feb-24 19:32N 35°23' E 139°44'0 0.0
2015-Feb-24 18:32N 35°23' E 139°44'0 0.0
2015-Feb-24 17:32N 35°23' E 139°44'0 0.0
2015-Feb-24 16:32N 35°23' E 139°44'0 0.0
2015-Feb-24 15:32N 35°23' E 139°44'0 0.0
2015-Feb-24 14:32N 35°23' E 139°44'0 0.0
2015-Feb-24 13:32N 35°23' E 139°44'0 0.0
2015-Feb-24 12:32N 35°23' E 139°44'0 0.0
2015-Feb-24 11:32N 35°23' E 139°44'0 0.1
2015-Feb-24 10:32N 35°23' E 139°44'0 0.0
2015-Feb-24 09:32N 35°23' E 139°44'0 0.0
2015-Feb-24 08:32N 35°23' E 139°44'0 0.0
2015-Feb-24 07:32N 35°23' E 139°44'0 0.1
2015-Feb-24 06:32N 35°23' E 139°44'0 0.0
2015-Feb-24 05:32N 35°23' E 139°44'0 0.0
2015-Feb-24 04:32N 35°23' E 139°44'0 0.0
2015-Feb-24 03:32N 35°23' E 139°44'3 2.7
2015-Feb-24 02:33N 35°24' E 139°41'0 0.0
2015-Feb-24 01:34N 35°24' E 139°41'3 2.8
2015-Feb-24 00:34N 35°22' E 139°43'0 0.3
2015-Feb-23 23:34N 35°22' E 139°44'0 0.0
2015-Feb-23 22:33N 35°22' E 139°44'10 9.8
2015-Feb-23 21:33N 35°13' E 139°47'  
Track history (hours):
 
Tides and Currents Weather Stations Pressure Air Temp Water Temp Dewpoint Dewpoint Depression Visibility Wind Speed Wind Dir Waves Ship Positions

Hiyodori

Last reported at 2015-Mar-05 09:32 UTC. Time now 2015-Mar-05 10:29 UTC.
Position N 35°23' E 139°43'.

Length 88 m; draft 3.6 m.

Type: Cargo ship. MMSI: 431000132.

Date/timePositionNaut miles runAvg speedWind from/ knotsBaromVisibWave heightAir tempDewpointWater temp
2015-Mar-05 09:32N 35°23' E 139°43'0 0.0
2015-Mar-05 08:29N 35°23' E 139°43'0 0.0
2015-Mar-05 07:32N 35°23' E 139°43'0 0.0
2015-Mar-05 06:32N 35°23' E 139°43'0 0.0
2015-Mar-05 05:32N 35°23' E 139°43'0 0.0
2015-Mar-05 04:32N 35°23' E 139°43'0 0.0
2015-Mar-05 03:32N 35°23' E 139°43'0 0.0
2015-Mar-05 02:29N 35°23' E 139°43'0 0.0
2015-Mar-05 01:32N 35°23' E 139°43'0 0.0
2015-Mar-05 00:32N 35°23' E 139°43'0 0.0
2015-Mar-04 23:32N 35°23' E 139°43'0 0.0
2015-Mar-04 18:14N 35°23' E 139°43'0 0.0
2015-Mar-04 17:32N 35°23' E 139°43'0 0.1
2015-Mar-04 16:32N 35°23' E 139°44'0 0.0
2015-Mar-04 15:32N 35°23' E 139°44'0 0.1
2015-Mar-04 14:32N 35°23' E 139°44'0 0.0
2015-Mar-04 13:32N 35°23' E 139°44'0 0.1
2015-Mar-04 12:29N 35°23' E 139°44'0 0.0
2015-Mar-04 11:32N 35°23' E 139°44'0 0.1
2015-Mar-04 10:32N 35°23' E 139°43'0 0.1
2015-Mar-04 09:32N 35°23' E 139°44'0 0.0
2015-Mar-04 08:34N 35°23' E 139°44'0 0.0
2015-Mar-04 07:34N 35°23' E 139°44'0 0.0
2015-Mar-04 06:31N 35°23' E 139°44'0 0.1
2015-Mar-04 05:33N 35°23' E 139°43'0 0.0
2015-Mar-04 04:33N 35°23' E 139°43'0 0.0
2015-Mar-04 03:33N 35°23' E 139°43'0 0.0
2015-Mar-04 02:34N 35°23' E 139°43'0 0.0
2015-Mar-04 01:33N 35°23' E 139°43'0 0.0
2015-Mar-04 00:34N 35°23' E 139°43'2 1.9
2015-Mar-03 23:34N 35°25' E 139°44'6 5.6
2015-Mar-03 22:33N 35°29' E 139°39'0 0.0
2015-Mar-03 21:33N 35°29' E 139°39'0 0.0
2015-Mar-03 20:34N 35°29' E 139°39'0 0.0
2015-Mar-03 19:33N 35°29' E 139°39'0 0.0
2015-Mar-03 18:34N 35°29' E 139°39'0 0.0
2015-Mar-03 17:33N 35°29' E 139°39'0 0.0
2015-Mar-03 16:34N 35°29' E 139°39'0 0.0
2015-Mar-03 15:34N 35°29' E 139°39'0 0.0
2015-Mar-03 14:34N 35°29' E 139°39'0 0.0
2015-Mar-03 13:34N 35°29' E 139°39'0 0.0
2015-Mar-03 12:34N 35°29' E 139°39'0 0.0
2015-Mar-03 11:34N 35°29' E 139°39'0 0.0
2015-Mar-03 10:33N 35°29' E 139°39'0 0.0
2015-Mar-03 09:33N 35°29' E 139°39'0 0.0
2015-Mar-03 08:34N 35°29' E 139°39'0 0.0
2015-Mar-03 07:33N 35°29' E 139°39'0 0.0
2015-Mar-03 06:34N 35°29' E 139°39'0 0.0
2015-Mar-03 05:33N 35°29' E 139°39'0 0.0
2015-Mar-03 04:33N 35°29' E 139°39'0 0.0
2015-Mar-03 03:34N 35°29' E 139°39'0 0.0
2015-Mar-03 02:33N 35°29' E 139°39'0 0.0
2015-Mar-03 01:33N 35°29' E 139°39'0 0.0
2015-Mar-03 00:34N 35°29' E 139°39'0 0.0
2015-Mar-02 23:33N 35°29' E 139°39'1 1.0
2015-Mar-02 22:33N 35°28' E 139°40'6 6.3
2015-Mar-02 21:33N 35°23' E 139°44'0 0.0
2015-Mar-02 20:34N 35°23' E 139°44'0 0.0
2015-Mar-02 19:34N 35°23' E 139°44'0 0.0
2015-Mar-02 18:33N 35°23' E 139°44'3 2.9
2015-Mar-02 17:34N 35°24' E 139°41'0 0.0
2015-Mar-02 16:33N 35°24' E 139°41'0 0.5
2015-Mar-02 15:33N 35°24' E 139°41'1410.6
2015-Mar-02 14:16N 35°11' E 139°46'  
2015-Feb-28 06:34N 34°03' E 135°00'1312.6
2015-Feb-28 05:33N 34°15' E 134°59'1211.8
2015-Feb-28 04:33N 34°26' E 135°05'1212.0
2015-Feb-28 03:33N 34°35' E 135°15'4 4.3
2015-Feb-28 02:33N 34°39' E 135°15'0 0.1
2015-Feb-28 01:33N 34°39' E 135°15'3 2.9
2015-Feb-28 00:33N 34°41' E 135°17'0 0.0
2015-Feb-27 23:32N 34°41' E 135°17'3 3.2
2015-Feb-27 22:33N 34°39' E 135°20'1 0.8
2015-Feb-27 21:33N 34°38' E 135°20'0 0.1
2015-Feb-27 20:33N 34°38' E 135°20'0 0.0
2015-Feb-27 19:33N 34°38' E 135°20'0 0.0
2015-Feb-27 18:33N 34°38' E 135°20'0 0.0
2015-Feb-27 17:33N 34°38' E 135°20'0 0.0
2015-Feb-27 16:33N 34°38' E 135°20'5 5.0
2015-Feb-27 15:33N 34°34' E 135°17'1312.8
2015-Feb-27 14:33N 34°24' E 135°06'1111.4
2015-Feb-27 13:33N 34°14' E 134°60'1110.8
2015-Feb-27 12:33N 34°04' E 135°01'9 8.7
2015-Feb-27 11:32N 33°55' E 135°02'225 8.9
2015-Feb-26 10:04N 34°59' E 139°24'810.9
2015-Feb-26 09:21N 35°03' E 139°33'1012.1
2015-Feb-26 08:33N 35°08' E 139°42'1110.9
2015-Feb-26 07:33N 35°19' E 139°43'6 5.5
2015-Feb-26 06:33N 35°24' E 139°41'0 0.0
2015-Feb-26 05:33N 35°24' E 139°41'1 1.0
2015-Feb-26 04:33N 35°24' E 139°40'0 0.2
2015-Feb-26 03:30N 35°23' E 139°40'0 0.1
2015-Feb-26 02:33N 35°23' E 139°40'0 0.0
2015-Feb-26 01:33N 35°23' E 139°40'0 0.0
2015-Feb-26 00:33N 35°23' E 139°40'2 1.8
2015-Feb-25 23:32N 35°24' E 139°42'5 1.0
2015-Feb-25 18:16N 35°29' E 139°39'0 0.0
2015-Feb-25 17:33N 35°29' E 139°39'0 0.0
2015-Feb-25 16:33N 35°29' E 139°39'0 0.0
2015-Feb-25 15:33N 35°29' E 139°39'0 0.0
2015-Feb-25 14:33N 35°29' E 139°39'0 0.0
2015-Feb-25 13:33N 35°29' E 139°39'0 0.0
2015-Feb-25 12:33N 35°29' E 139°39'0 0.0
2015-Feb-25 11:33N 35°29' E 139°39'0 0.0
2015-Feb-25 10:33N 35°29' E 139°39'0 0.0
2015-Feb-25 09:33N 35°29' E 139°39'0 0.0
2015-Feb-25 08:33N 35°29' E 139°39'0 0.0
2015-Feb-25 07:33N 35°29' E 139°39'0 0.0
2015-Feb-25 06:33N 35°29' E 139°39'0 0.0
2015-Feb-25 05:33N 35°29' E 139°39'0 0.0
2015-Feb-25 04:33N 35°29' E 139°39'0 0.0
2015-Feb-25 03:33N 35°29' E 139°39'0 0.0
2015-Feb-25 02:33N 35°29' E 139°39'0 0.0
2015-Feb-25 01:33N 35°29' E 139°39'0 0.0
2015-Feb-25 00:33N 35°29' E 139°39'0 0.0
2015-Feb-24 23:33N 35°29' E 139°39'2 2.2
2015-Feb-24 22:33N 35°27' E 139°41'5 4.6
2015-Feb-24 21:32N 35°23' E 139°44'0 0.0
2015-Feb-24 20:32N 35°23' E 139°44'0 0.0
2015-Feb-24 19:32N 35°23' E 139°44'0 0.0
2015-Feb-24 18:32N 35°23' E 139°44'0 0.0
2015-Feb-24 17:32N 35°23' E 139°44'0 0.0
2015-Feb-24 16:32N 35°23' E 139°44'0 0.0
2015-Feb-24 15:32N 35°23' E 139°44'0 0.0
2015-Feb-24 14:32N 35°23' E 139°44'0 0.0
2015-Feb-24 13:32N 35°23' E 139°44'0 0.0
2015-Feb-24 12:32N 35°23' E 139°44'0 0.0
2015-Feb-24 11:32N 35°23' E 139°44'0 0.1
2015-Feb-24 10:32N 35°23' E 139°44'0 0.0
2015-Feb-24 09:32N 35°23' E 139°44'0 0.0
2015-Feb-24 08:32N 35°23' E 139°44'0 0.0
2015-Feb-24 07:32N 35°23' E 139°44'0 0.1
2015-Feb-24 06:32N 35°23' E 139°44'0 0.0
2015-Feb-24 05:32N 35°23' E 139°44'0 0.0
2015-Feb-24 04:32N 35°23' E 139°44'0 0.0
2015-Feb-24 03:32N 35°23' E 139°44'3 2.7
2015-Feb-24 02:33N 35°24' E 139°41'0 0.0
2015-Feb-24 01:34N 35°24' E 139°41'3 2.8
2015-Feb-24 00:34N 35°22' E 139°43'0 0.3
2015-Feb-23 23:34N 35°22' E 139°44'0 0.0
2015-Feb-23 22:33N 35°22' E 139°44'10 9.8
2015-Feb-23 21:33N 35°13' E 139°47'  

Dump ship's entire track history